Time,TemperatureF,DewpointF,PressureIn,WindDirection,WindDirectionDegrees,WindSpeedMPH,WindSpeedGustMPH,Humidity,HourlyPrecipIn,Conditions,Clouds,dailyrainin,SoftwareType,DateUTC
2017-04-24 00:02:00,36.5,33.1,30.01,NNE,15,2.9,3.0,87,0.00,,,0.00,meteobridge,2017-04-24 05:02:00,
2017-04-24 00:08:00,36.3,33.1,30.01,NNE,15,0.0,0.0,88,0.00,,,0.00,meteobridge,2017-04-24 05:08:00,
2017-04-24 00:13:00,36.1,32.9,30.01,NNE,15,4.0,4.0,88,0.00,,,0.00,meteobridge,2017-04-24 05:13:00,
2017-04-24 00:18:00,36.1,32.9,30.00,NNE,15,0.0,0.0,88,0.00,,,0.00,meteobridge,2017-04-24 05:18:00,
2017-04-24 00:23:00,36.1,33.3,30.00,NNE,15,2.9,4.0,89,0.00,,,0.00,meteobridge,2017-04-24 05:23:00,
2017-04-24 00:28:00,36.1,33.3,30.00,NNE,15,2.0,2.0,89,0.00,,,0.00,meteobridge,2017-04-24 05:28:00,
2017-04-24 00:33:00,36.0,33.1,30.00,NNE,15,2.9,4.0,89,0.00,,,0.00,meteobridge,2017-04-24 05:33:00,
2017-04-24 00:38:00,36.0,33.1,30.00,NNE,15,0.9,4.0,89,0.00,,,0.00,meteobridge,2017-04-24 05:38:00,
2017-04-24 00:43:00,36.0,33.1,30.00,NNE,15,2.0,4.0,89,0.00,,,0.00,meteobridge,2017-04-24 05:43:00,
2017-04-24 00:49:00,36.0,33.1,30.00,NNE,15,0.9,3.0,89,0.00,,,0.00,meteobridge,2017-04-24 05:49:00,
2017-04-24 00:54:00,36.0,33.3,30.00,NNE,15,2.0,4.0,90,0.00,,,0.00,meteobridge,2017-04-24 05:54:00,
2017-04-24 00:59:00,36.0,33.3,30.00,NNE,15,2.0,4.0,90,0.00,,,0.00,meteobridge,2017-04-24 05:59:00,
2017-04-24 01:04:00,36.0,33.3,30.00,NNE,15,0.9,1.0,90,0.00,,,0.00,meteobridge,2017-04-24 06:04:00,
2017-04-24 01:09:00,36.0,33.6,30.00,NNE,15,2.9,5.0,91,0.00,,,0.00,meteobridge,2017-04-24 06:09:00,
2017-04-24 01:14:00,36.0,33.6,30.00,NNE,15,2.0,4.0,91,0.00,,,0.00,meteobridge,2017-04-24 06:14:00,
2017-04-24 01:19:00,36.0,33.6,30.00,NNE,15,2.0,5.0,91,0.00,,,0.00,meteobridge,2017-04-24 06:19:00,
2017-04-24 01:24:00,36.1,33.8,30.00,NNE,14,6.0,7.0,91,0.00,,,0.00,meteobridge,2017-04-24 06:24:00,
2017-04-24 01:29:00,36.3,33.6,30.00,NNE,13,0.9,4.0,90,0.00,,,0.00,meteobridge,2017-04-24 06:29:00,
2017-04-24 01:34:00,36.3,33.6,29.99,NNE,13,2.9,5.0,90,0.00,,,0.00,meteobridge,2017-04-24 06:34:00,
2017-04-24 01:39:00,36.3,33.6,29.99,NNE,13,2.9,3.0,90,0.00,,,0.00,meteobridge,2017-04-24 06:39:00,
2017-04-24 01:44:00,36.3,33.6,29.99,NNE,15,4.0,6.0,90,0.00,,,0.00,meteobridge,2017-04-24 06:44:00,
2017-04-24 01:49:00,36.3,33.4,29.98,NNE,15,4.0,4.0,89,0.00,,,0.00,meteobridge,2017-04-24 06:49:00,
2017-04-24 01:54:00,36.3,33.4,29.98,NNE,15,2.9,4.0,89,0.00,,,0.00,meteobridge,2017-04-24 06:54:00,
2017-04-24 01:59:00,36.3,33.4,29.98,NNE,16,6.0,6.0,89,0.00,,,0.00,meteobridge,2017-04-24 06:59:00,
2017-04-24 02:04:00,36.5,33.6,29.98,NNE,15,4.0,4.0,89,0.00,,,0.00,meteobridge,2017-04-24 07:04:00,
2017-04-24 02:09:00,36.5,33.3,29.98,NNE,15,2.9,5.0,88,0.00,,,0.00,meteobridge,2017-04-24 07:09:00,
2017-04-24 02:14:00,36.3,33.1,29.98,NNE,15,2.9,4.0,88,0.00,,,0.00,meteobridge,2017-04-24 07:14:00,
2017-04-24 02:19:00,36.3,33.1,29.98,NNE,15,4.0,5.0,88,0.00,,,0.00,meteobridge,2017-04-24 07:19:00,
2017-04-24 02:25:00,36.3,33.1,29.98,NNE,15,2.9,4.0,88,0.00,,,0.00,meteobridge,2017-04-24 07:25:00,
2017-04-24 02:29:00,36.1,32.9,29.98,NNE,15,0.9,3.0,88,0.00,,,0.00,meteobridge,2017-04-24 07:29:00,
2017-04-24 02:35:00,36.1,32.9,29.98,NNE,15,2.9,5.0,88,0.00,,,0.00,meteobridge,2017-04-24 07:35:00,
2017-04-24 02:40:00,36.0,32.7,29.98,NNE,15,2.9,4.0,88,0.00,,,0.00,meteobridge,2017-04-24 07:40:00,
2017-04-24 02:45:00,36.0,32.7,29.98,NNE,15,2.0,4.0,88,0.00,,,0.00,meteobridge,2017-04-24 07:45:00,
2017-04-24 02:50:00,36.0,32.7,29.98,NNE,15,2.9,3.0,88,0.00,,,0.00,meteobridge,2017-04-24 07:50:00,
2017-04-24 02:56:00,36.0,32.7,29.98,NNE,15,2.9,3.0,88,0.00,,,0.00,meteobridge,2017-04-24 07:56:00,
2017-04-24 02:58:00,36.0,32.5,29.98,NNE,15,0.0,2.0,87,0.00,,,0.00,meteobridge,2017-04-24 07:58:00,
2017-04-24 03:03:00,36.0,32.5,29.97,NNE,15,2.9,5.0,87,0.00,,,0.00,meteobridge,2017-04-24 08:03:00,
2017-04-24 03:08:00,36.0,32.5,29.97,NNE,12,4.0,6.0,87,0.00,,,0.00,meteobridge,2017-04-24 08:08:00,
2017-04-24 03:13:00,36.0,32.5,29.97,North,11,4.9,5.0,87,0.00,,,0.00,meteobridge,2017-04-24 08:13:00,
2017-04-24 03:18:00,36.0,32.5,29.97,North,11,2.9,4.0,87,0.00,,,0.00,meteobridge,2017-04-24 08:18:00,
2017-04-24 03:23:00,36.0,32.5,29.97,North,11,0.9,4.0,87,0.00,,,0.00,meteobridge,2017-04-24 08:23:00,
2017-04-24 03:28:00,36.0,32.5,29.97,North,11,2.9,5.0,87,0.00,,,0.00,meteobridge,2017-04-24 08:28:00,
2017-04-24 03:33:00,36.0,32.5,29.97,North,11,2.0,4.0,87,0.00,,,0.00,meteobridge,2017-04-24 08:33:00,
2017-04-24 03:38:00,35.6,32.2,29.97,North,11,0.9,3.0,87,0.00,,,0.00,meteobridge,2017-04-24 08:38:00,
2017-04-24 03:43:00,35.4,32.2,29.97,North,11,4.0,5.0,88,0.00,,,0.00,meteobridge,2017-04-24 08:43:00,
2017-04-24 03:48:00,35.6,32.4,29.97,North,11,2.0,5.0,88,0.00,,,0.00,meteobridge,2017-04-24 08:48:00,
2017-04-24 03:53:00,35.6,32.4,29.97,North,11,2.0,6.0,88,0.00,,,0.00,meteobridge,2017-04-24 08:53:00,
2017-04-24 03:58:00,35.6,32.4,29.97,North,11,4.0,5.0,88,0.00,,,0.00,meteobridge,2017-04-24 08:58:00,